sensor_id;sensor_type;location;lat;lon;timestamp;pressure;altitude;pressure_sealevel;temperature;humidity
12775;BME280;6451;42.630;23.382;2023-02-12T00:00:05;95327.66;;;1.78;55.86
12775;BME280;6451;42.630;23.382;2023-02-12T00:02:32;95329.53;;;1.78;56.23
12775;BME280;6451;42.630;23.382;2023-02-12T00:04:59;95296.56;;;1.52;56.69
12775;BME280;6451;42.630;23.382;2023-02-12T00:07:30;95343.97;;;1.77;56.86
12775;BME280;6451;42.630;23.382;2023-02-12T00:09:57;95319.34;;;1.80;56.64
12775;BME280;6451;42.630;23.382;2023-02-12T00:12:25;95314.53;;;1.77;56.25
12775;BME280;6451;42.630;23.382;2023-02-12T00:14:52;95314.00;;;1.70;56.28
12775;BME280;6451;42.630;23.382;2023-02-12T00:17:19;95328.97;;;1.76;56.20
12775;BME280;6451;42.630;23.382;2023-02-12T00:19:48;95333.25;;;1.66;56.44
12775;BME280;6451;42.630;23.382;2023-02-12T00:22:15;95274.63;;;1.45;56.40
12775;BME280;6451;42.630;23.382;2023-02-12T00:24:44;95329.50;;;1.73;56.56
12775;BME280;6451;42.630;23.382;2023-02-12T00:27:10;95310.50;;;1.59;55.76
12775;BME280;6451;42.630;23.382;2023-02-12T00:29:38;95318.25;;;1.65;55.76
12775;BME280;6451;42.630;23.382;2023-02-12T00:32:05;95308.09;;;1.57;55.58
12775;BME280;6451;42.630;23.382;2023-02-12T00:34:31;95249.75;;;1.29;54.81
12775;BME280;6451;42.630;23.382;2023-02-12T00:36:59;95326.00;;;1.67;55.50
12775;BME280;6451;42.630;23.382;2023-02-12T00:39:26;95265.00;;;1.38;55.16
12775;BME280;6451;42.630;23.382;2023-02-12T00:41:55;95282.13;;;1.58;55.49
12775;BME280;6451;42.630;23.382;2023-02-12T00:44:21;95278.91;;;1.46;55.30
12775;BME280;6451;42.630;23.382;2023-02-12T00:46:50;95270.09;;;1.50;55.05
12775;BME280;6451;42.630;23.382;2023-02-12T00:49:17;95289.38;;;1.62;54.74
12775;BME280;6451;42.630;23.382;2023-02-12T00:51:44;95307.84;;;1.69;54.96
12775;BME280;6451;42.630;23.382;2023-02-12T00:54:11;95307.56;;;1.55;55.60
12775;BME280;6451;42.630;23.382;2023-02-12T00:56:38;95297.13;;;1.64;55.47
12775;BME280;6451;42.630;23.382;2023-02-12T00:59:07;95285.63;;;1.58;54.92
12775;BME280;6451;42.630;23.382;2023-02-12T01:01:34;95268.50;;;1.59;55.34
12775;BME280;6451;42.630;23.382;2023-02-12T01:04:00;95275.44;;;1.60;55.29
12775;BME280;6451;42.630;23.382;2023-02-12T01:06:29;95293.41;;;1.70;55.34
12775;BME280;6451;42.630;23.382;2023-02-12T01:08:56;95282.94;;;1.68;54.96
12775;BME280;6451;42.630;23.382;2023-02-12T01:11:23;95279.19;;;1.75;54.81
12775;BME280;6451;42.630;23.382;2023-02-12T01:13:50;95289.91;;;1.75;54.42
12775;BME280;6451;42.630;23.382;2023-02-12T01:16:22;95277.06;;;1.72;54.77
12775;BME280;6451;42.630;23.382;2023-02-12T01:18:50;95292.59;;;1.85;54.32
12775;BME280;6451;42.630;23.382;2023-02-12T01:21:26;95287.78;;;1.77;54.40
12775;BME280;6451;42.630;23.382;2023-02-12T01:23:53;95302.22;;;1.86;54.98
12775;BME280;6451;42.630;23.382;2023-02-12T01:26:21;95312.13;;;1.85;54.80
12775;BME280;6451;42.630;23.382;2023-02-12T01:28:50;95314.50;;;1.66;54.76
12775;BME280;6451;42.630;23.382;2023-02-12T01:31:19;95274.91;;;1.58;55.53
12775;BME280;6451;42.630;23.382;2023-02-12T01:33:49;95298.75;;;1.80;55.28
12775;BME280;6451;42.630;23.382;2023-02-12T01:36:18;95301.94;;;1.72;55.68
12775;BME280;6451;42.630;23.382;2023-02-12T01:38:45;95295.81;;;1.77;55.65
12775;BME280;6451;42.630;23.382;2023-02-12T01:41:14;95272.78;;;1.71;55.77
12775;BME280;6451;42.630;23.382;2023-02-12T01:43:43;95279.75;;;1.82;55.75
12775;BME280;6451;42.630;23.382;2023-02-12T01:46:12;95281.59;;;1.76;55.96
12775;BME280;6451;42.630;23.382;2023-02-12T01:48:42;95251.63;;;1.59;56.35
12775;BME280;6451;42.630;23.382;2023-02-12T01:51:14;95266.63;;;1.55;56.66
12775;BME280;6451;42.630;23.382;2023-02-12T01:53:46;95246.28;;;1.44;56.98
12775;BME280;6451;42.630;23.382;2023-02-12T01:56:15;95250.31;;;1.66;56.80
12775;BME280;6451;42.630;23.382;2023-02-12T01:58:45;95231.84;;;1.60;56.97
12775;BME280;6451;42.630;23.382;2023-02-12T02:01:21;95246.56;;;1.52;57.96
12775;BME280;6451;42.630;23.382;2023-02-12T02:03:53;95246.56;;;1.62;56.73
12775;BME280;6451;42.630;23.382;2023-02-12T02:06:25;95268.50;;;1.70;56.81
12775;BME280;6451;42.630;23.382;2023-02-12T02:08:54;95254.84;;;1.66;57.72
12775;BME280;6451;42.630;23.382;2023-02-12T02:11:22;95232.94;;;1.54;57.58
12775;BME280;6451;42.630;23.382;2023-02-12T02:14:06;95247.09;;;1.59;58.18
12775;BME280;6451;42.630;23.382;2023-02-12T02:16:56;95247.09;;;1.44;58.24
12775;BME280;6451;42.630;23.382;2023-02-12T02:19:34;95248.16;;;1.43;58.76
12775;BME280;6451;42.630;23.382;2023-02-12T02:22:22;95268.19;;;1.35;59.49
12775;BME280;6451;42.630;23.382;2023-02-12T02:25:14;95258.84;;;1.38;59.69
12775;BME280;6451;42.630;23.382;2023-02-12T02:27:58;95255.91;;;1.34;59.94
12775;BME280;6451;42.630;23.382;2023-02-12T02:30:33;95105.03;;;0.44;60.05
12775;BME280;6451;42.630;23.382;2023-02-12T02:33:14;95180.44;;;0.92;60.57
12775;BME280;6451;42.630;23.382;2023-02-12T02:35:52;95249.47;;;1.46;60.46
12775;BME280;6451;42.630;23.382;2023-02-12T02:38:30;95253.53;;;1.48;60.62
12775;BME280;6451;42.630;23.382;2023-02-12T02:41:05;95236.94;;;1.51;60.57
12775;BME280;6451;42.630;23.382;2023-02-12T02:43:38;95227.81;;;1.37;60.89
12775;BME280;6451;42.630;23.382;2023-02-12T02:46:10;95236.66;;;1.43;61.39
12775;BME280;6451;42.630;23.382;2023-02-12T02:48:43;95201.06;;;1.22;61.32
12775;BME280;6451;42.630;23.382;2023-02-12T02:51:16;95236.13;;;1.35;61.33
12775;BME280;6451;42.630;23.382;2023-02-12T02:53:48;95273.31;;;1.62;61.63
12775;BME280;6451;42.630;23.382;2023-02-12T02:56:19;95260.47;;;1.49;61.78
12775;BME280;6451;42.630;23.382;2023-02-12T02:58:52;95259.13;;;1.47;62.56
12775;BME280;6451;42.630;23.382;2023-02-12T03:01:26;95216.59;;;1.20;62.96
12775;BME280;6451;42.630;23.382;2023-02-12T03:03:59;95277.06;;;1.61;63.35
12775;BME280;6451;42.630;23.382;2023-02-12T03:06:33;95274.38;;;1.56;63.63
12775;BME280;6451;42.630;23.382;2023-02-12T03:09:10;95282.16;;;1.63;63.57
12775;BME280;6451;42.630;23.382;2023-02-12T03:11:39;95279.19;;;1.59;63.84
12775;BME280;6451;42.630;23.382;2023-02-12T03:14:11;95274.38;;;1.56;64.64
12775;BME280;6451;42.630;23.382;2023-02-12T03:16:46;95266.88;;;1.43;64.67
12775;BME280;6451;42.630;23.382;2023-02-12T03:19:18;95265.28;;;1.42;64.71
12775;BME280;6451;42.630;23.382;2023-02-12T03:21:49;95256.97;;;1.44;65.12
12775;BME280;6451;42.630;23.382;2023-02-12T03:24:23;95232.91;;;1.23;65.18
12775;BME280;6451;42.630;23.382;2023-02-12T03:26:57;95275.16;;;1.42;65.20
12775;BME280;6451;42.630;23.382;2023-02-12T03:29:25;95255.09;;;1.29;65.89
12775;BME280;6451;42.630;23.382;2023-02-12T03:32:04;95239.84;;;1.19;65.99
12775;BME280;6451;42.630;23.382;2023-02-12T03:34:44;95260.47;;;1.39;66.44
12775;BME280;6451;42.630;23.382;2023-02-12T03:37:19;95256.97;;;1.23;66.71
12775;BME280;6451;42.630;23.382;2023-02-12T03:39:52;95265.78;;;1.24;67.56
12775;BME280;6451;42.630;23.382;2023-02-12T03:42:30;95259.91;;;1.27;68.19
12775;BME280;6451;42.630;23.382;2023-02-12T03:45:01;95213.63;;;1.01;68.91
12775;BME280;6451;42.630;23.382;2023-02-12T03:47:38;95254.03;;;1.35;68.78
12775;BME280;6451;42.630;23.382;2023-02-12T03:50:12;95264.72;;;1.25;69.30
12775;BME280;6451;42.630;23.382;2023-02-12T03:52:40;95259.59;;;1.13;71.06
12775;BME280;6451;42.630;23.382;2023-02-12T03:55:08;95249.66;;;0.98;72.37
12775;BME280;6451;42.630;23.382;2023-02-12T03:57:39;95254.19;;;0.88;72.44
12775;BME280;6451;42.630;23.382;2023-02-12T04:00:10;95238.94;;;0.78;72.52
12775;BME280;6451;42.630;23.382;2023-02-12T04:02:40;95225.09;;;0.96;72.45
12775;BME280;6451;42.630;23.382;2023-02-12T04:05:16;95249.19;;;1.22;71.94
12775;BME280;6451;42.630;23.382;2023-02-12T04:07:43;95250.81;;;1.28;71.60
12775;BME280;6451;42.630;23.382;2023-02-12T04:10:10;95261.00;;;1.31;71.86
12775;BME280;6451;42.630;23.382;2023-02-12T04:12:39;95229.09;;;0.99;72.18
12775;BME280;6451;42.630;23.382;2023-02-12T04:15:19;95240.63;;;1.15;72.67
12775;BME280;6451;42.630;23.382;2023-02-12T04:18:01;95259.59;;;1.13;72.57
12775;BME280;6451;42.630;23.382;2023-02-12T04:20:40;95253.16;;;1.04;73.13
12775;BME280;6451;42.630;23.382;2023-02-12T04:23:16;95178.53;;;0.62;73.57
12775;BME280;6451;42.630;23.382;2023-02-12T04:25:52;95264.69;;;1.20;73.75
12775;BME280;6451;42.630;23.382;2023-02-12T04:28:27;95265.50;;;1.15;73.98
12775;BME280;6451;42.630;23.382;2023-02-12T04:31:04;95216.00;;;0.92;74.08
12775;BME280;6451;42.630;23.382;2023-02-12T04:33:40;95273.25;;;1.17;74.73
12775;BME280;6451;42.630;23.382;2023-02-12T04:36:14;95263.59;;;1.05;75.20
12775;BME280;6451;42.630;23.382;2023-02-12T04:38:46;95259.56;;;0.98;75.92
12775;BME280;6451;42.630;23.382;2023-02-12T04:41:15;95280.97;;;1.13;76.12
12775;BME280;6451;42.630;23.382;2023-02-12T04:43:42;95272.66;;;0.99;77.17
12775;BME280;6451;42.630;23.382;2023-02-12T04:46:09;95277.78;;;1.16;77.06
12775;BME280;6451;42.630;23.382;2023-02-12T04:48:49;95271.09;;;1.08;76.66
12775;BME280;6451;42.630;23.382;2023-02-12T04:51:17;95290.34;;;1.10;76.21
12775;BME280;6451;42.630;23.382;2023-02-12T04:53:44;95279.88;;;0.94;76.14
12775;BME280;6451;42.630;23.382;2023-02-12T04:56:11;95281.22;;;1.01;76.58
12775;BME280;6451;42.630;23.382;2023-02-12T04:58:41;95301.84;;;1.21;76.86
12775;BME280;6451;42.630;23.382;2023-02-12T05:01:10;95230.94;;;0.83;76.78
12775;BME280;6451;42.630;23.382;2023-02-12T05:03:40;95277.56;;;1.23;76.21
12775;BME280;6451;42.630;23.382;2023-02-12T05:06:08;95294.41;;;1.33;76.71
12775;BME280;6451;42.630;23.382;2023-02-12T05:08:35;95293.03;;;1.16;77.51
12775;BME280;6451;42.630;23.382;2023-02-12T05:11:03;95295.75;;;1.31;76.66
12775;BME280;6451;42.630;23.382;2023-02-12T05:13:30;95270.59;;;1.17;76.86
12775;BME280;6451;42.630;23.382;2023-02-12T05:15:58;95214.63;;;0.79;76.63
12775;BME280;6451;42.630;23.382;2023-02-12T05:18:26;95290.63;;;1.19;77.32
12775;BME280;6451;42.630;23.382;2023-02-12T05:20:58;95207.41;;;0.80;75.94
12775;BME280;6451;42.630;23.382;2023-02-12T05:23:29;95295.16;;;1.19;76.45
12775;BME280;6451;42.630;23.382;2023-02-12T05:25:57;95184.66;;;0.57;74.49
12775;BME280;6451;42.630;23.382;2023-02-12T05:28:25;95314.72;;;1.34;74.38
12775;BME280;6451;42.630;23.382;2023-02-12T05:30:51;95278.81;;;1.05;75.62
12775;BME280;6451;42.630;23.382;2023-02-12T05:33:18;95313.38;;;1.37;76.28
12775;BME280;6451;42.630;23.382;2023-02-12T05:35:45;95299.75;;;1.23;80.01
12775;BME280;6451;42.630;23.382;2023-02-12T05:38:14;95305.09;;;1.23;84.00
12775;BME280;6451;42.630;23.382;2023-02-12T05:40:41;95313.38;;;1.27;85.29
12775;BME280;6451;42.630;23.382;2023-02-12T05:43:08;95326.47;;;1.23;86.63
12775;BME280;6451;42.630;23.382;2023-02-12T05:45:35;95313.34;;;1.17;86.04
12775;BME280;6451;42.630;23.382;2023-02-12T05:48:02;95324.88;;;1.27;85.83
12775;BME280;6451;42.630;23.382;2023-02-12T05:50:35;95341.72;;;1.23;86.09
12775;BME280;6451;42.630;23.382;2023-02-12T05:53:02;95340.84;;;1.12;88.58
12775;BME280;6451;42.630;23.382;2023-02-12T05:55:31;95334.50;;;1.23;90.14
12775;BME280;6451;42.630;23.382;2023-02-12T05:57:57;95329.66;;;1.20;91.43
12775;BME280;6451;42.630;23.382;2023-02-12T06:00:24;95329.09;;;1.08;95.10
12775;BME280;6451;42.630;23.382;2023-02-12T06:02:51;95326.69;;;1.11;96.12
12775;BME280;6451;42.630;23.382;2023-02-12T06:05:18;95331.19;;;1.06;97.14
12775;BME280;6451;42.630;23.382;2023-02-12T06:07:46;95336.28;;;1.02;100.00
12775;BME280;6451;42.630;23.382;2023-02-12T06:10:14;95313.25;;;0.91;100.00
12775;BME280;6451;42.630;23.382;2023-02-12T06:12:43;95337.09;;;1.03;100.00
12775;BME280;6451;42.630;23.382;2023-02-12T06:15:10;95384.66;;;1.01;100.00
12775;BME280;6451;42.630;23.382;2023-02-12T06:17:37;95334.34;;;0.88;100.00
12775;BME280;6451;42.630;23.382;2023-02-12T06:20:04;95345.38;;;1.01;100.00
12775;BME280;6451;42.630;23.382;2023-02-12T06:22:32;95335.34;;;0.76;100.00
12775;BME280;6451;42.630;23.382;2023-02-12T06:24:59;95351.72;;;0.90;100.00
12775;BME280;6451;42.630;23.382;2023-02-12T06:27:26;95345.25;;;0.81;100.00
12775;BME280;6451;42.630;23.382;2023-02-12T06:29:54;95343.44;;;0.87;100.00
12775;BME280;6451;42.630;23.382;2023-02-12T06:32:21;95351.19;;;0.88;100.00
12775;BME280;6451;42.630;23.382;2023-02-12T06:34:48;95351.72;;;0.85;100.00
12775;BME280;6451;42.630;23.382;2023-02-12T06:37:15;95345.31;;;0.86;100.00
12775;BME280;6451;42.630;23.382;2023-02-12T06:39:42;95355.41;;;0.79;100.00
12775;BME280;6451;42.630;23.382;2023-02-12T06:42:09;95352.97;;;0.72;100.00
12775;BME280;6451;42.630;23.382;2023-02-12T06:44:35;95326.94;;;0.47;100.00
12775;BME280;6451;42.630;23.382;2023-02-12T06:47:04;95346.25;;;0.65;100.00
12775;BME280;6451;42.630;23.382;2023-02-12T06:49:31;95356.72;;;0.71;100.00
12775;BME280;6451;42.630;23.382;2023-02-12T06:51:57;95352.41;;;0.65;100.00
12775;BME280;6451;42.630;23.382;2023-02-12T06:54:24;95340.38;;;0.63;100.00
12775;BME280;6451;42.630;23.382;2023-02-12T06:56:51;95344.72;;;0.84;100.00
12775;BME280;6451;42.630;23.382;2023-02-12T06:59:18;95359.47;;;0.92;100.00
12775;BME280;6451;42.630;23.382;2023-02-12T07:01:45;95361.31;;;0.86;100.00
12775;BME280;6451;42.630;23.382;2023-02-12T07:04:14;95357.81;;;0.80;100.00
12775;BME280;6451;42.630;23.382;2023-02-12T07:06:41;95377.41;;;0.96;100.00
12775;BME280;6451;42.630;23.382;2023-02-12T07:09:08;95371.00;;;0.97;100.00
12775;BME280;6451;42.630;23.382;2023-02-12T07:11:36;95373.59;;;0.82;100.00
12775;BME280;6451;42.630;23.382;2023-02-12T07:14:03;95361.03;;;0.77;100.00
12775;BME280;6451;42.630;23.382;2023-02-12T07:16:29;95325.34;;;0.46;100.00
12775;BME280;6451;42.630;23.382;2023-02-12T07:18:56;95360.22;;;0.77;100.00
12775;BME280;6451;42.630;23.382;2023-02-12T07:21:25;95350.56;;;0.71;100.00
12775;BME280;6451;42.630;23.382;2023-02-12T07:23:52;95369.41;;;1.06;100.00
12775;BME280;6451;42.630;23.382;2023-02-12T07:26:20;95372.81;;;0.92;100.00
12775;BME280;6451;42.630;23.382;2023-02-12T07:28:48;95341.25;;;0.78;100.00
12775;BME280;6451;42.630;23.382;2023-02-12T07:31:17;95326.78;;;0.74;100.00
12775;BME280;6451;42.630;23.382;2023-02-12T07:33:44;95349.31;;;0.89;100.00
12775;BME280;6451;42.630;23.382;2023-02-12T07:36:14;95375.25;;;0.98;100.00
12775;BME280;6451;42.630;23.382;2023-02-12T07:38:43;95386.53;;;1.05;100.00
12775;BME280;6451;42.630;23.382;2023-02-12T07:41:12;95334.91;;;0.42;100.00
12775;BME280;6451;42.630;23.382;2023-02-12T07:43:39;95379.16;;;0.70;100.00
12775;BME280;6451;42.630;23.382;2023-02-12T07:46:08;95381.72;;;0.55;100.00
12775;BME280;6451;42.630;23.382;2023-02-12T07:48:35;95388.69;;;0.61;100.00
12775;BME280;6451;42.630;23.382;2023-02-12T07:51:05;95155.56;;;-0.87;100.00
12775;BME280;6451;42.630;23.382;2023-02-12T07:53:32;95408.97;;;0.57;100.00
12775;BME280;6451;42.630;23.382;2023-02-12T07:56:11;95396.94;;;0.60;100.00
12775;BME280;6451;42.630;23.382;2023-02-12T07:58:41;95398.44;;;0.45;100.00
12775;BME280;6451;42.630;23.382;2023-02-12T08:01:17;95387.75;;;0.40;100.00
12775;BME280;6451;42.630;23.382;2023-02-12T08:03:45;95398.22;;;0.52;100.00
12775;BME280;6451;42.630;23.382;2023-02-12T08:06:15;95366.94;;;0.42;100.00
12775;BME280;6451;42.630;23.382;2023-02-12T08:08:42;95399.63;;;0.60;100.00
12775;BME280;6451;42.630;23.382;2023-02-12T08:11:12;95414.31;;;0.57;100.00
12775;BME280;6451;42.630;23.382;2023-02-12T08:13:41;95406.34;;;0.62;100.00
12775;BME280;6451;42.630;23.382;2023-02-12T08:16:09;95418.09;;;0.66;100.00
12775;BME280;6451;42.630;23.382;2023-02-12T08:18:37;95373.66;;;0.50;100.00
12775;BME280;6451;42.630;23.382;2023-02-12T08:21:04;95374.78;;;0.54;100.00
12775;BME280;6451;42.630;23.382;2023-02-12T08:23:32;95393.03;;;0.72;100.00
12775;BME280;6451;42.630;23.382;2023-02-12T08:26:07;95333.19;;;0.26;100.00
12775;BME280;6451;42.630;23.382;2023-02-12T08:28:36;95385.78;;;0.63;100.00
12775;BME280;6451;42.630;23.382;2023-02-12T08:31:05;95407.28;;;0.88;100.00
12775;BME280;6451;42.630;23.382;2023-02-12T08:33:34;95403.81;;;0.88;100.00
12775;BME280;6451;42.630;23.382;2023-02-12T08:36:03;95422.28;;;0.94;100.00
12775;BME280;6451;42.630;23.382;2023-02-12T08:38:31;95425.75;;;0.95;100.00
12775;BME280;6451;42.630;23.382;2023-02-12T08:41:00;95424.44;;;0.97;100.00
12775;BME280;6451;42.630;23.382;2023-02-12T08:43:28;95428.63;;;0.83;100.00
12775;BME280;6451;42.630;23.382;2023-02-12T08:46:01;95437.00;;;0.97;100.00
12775;BME280;6451;42.630;23.382;2023-02-12T08:48:30;95424.28;;;0.72;100.00
12775;BME280;6451;42.630;23.382;2023-02-12T08:51:03;95451.78;;;1.15;100.00
12775;BME280;6451;42.630;23.382;2023-02-12T08:53:29;95449.91;;;1.10;100.00
12775;BME280;6451;42.630;23.382;2023-02-12T08:55:57;95414.50;;;0.88;100.00
12775;BME280;6451;42.630;23.382;2023-02-12T08:58:25;95434.63;;;1.00;100.00
12775;BME280;6451;42.630;23.382;2023-02-12T09:00:52;95449.09;;;1.09;100.00
12775;BME280;6451;42.630;23.382;2023-02-12T09:03:20;95440.19;;;0.99;100.00
12775;BME280;6451;42.630;23.382;2023-02-12T09:05:47;95444.50;;;1.00;100.00
12775;BME280;6451;42.630;23.382;2023-02-12T09:08:15;95414.28;;;0.99;100.00
12775;BME280;6451;42.630;23.382;2023-02-12T09:10:44;95412.59;;;0.83;100.00
12775;BME280;6451;42.630;23.382;2023-02-12T09:13:13;95450.97;;;1.09;100.00
12775;BME280;6451;42.630;23.382;2023-02-12T09:15:43;95451.19;;;1.02;100.00
12775;BME280;6451;42.630;23.382;2023-02-12T09:18:11;95460.38;;;1.17;100.00
12775;BME280;6451;42.630;23.382;2023-02-12T09:20:42;95468.88;;;1.14;100.00
12775;BME280;6451;42.630;23.382;2023-02-12T09:23:11;95471.88;;;1.17;100.00
12775;BME280;6451;42.630;23.382;2023-02-12T09:25:39;95467.59;;;1.16;100.00
12775;BME280;6451;42.630;23.382;2023-02-12T09:28:06;95465.63;;;1.06;100.00
12775;BME280;6451;42.630;23.382;2023-02-12T09:30:34;95443.34;;;0.86;100.00
12775;BME280;6451;42.630;23.382;2023-02-12T09:33:01;95471.44;;;0.93;100.00
12775;BME280;6451;42.630;23.382;2023-02-12T09:35:30;95474.72;;;1.05;100.00
12775;BME280;6451;42.630;23.382;2023-02-12T09:38:00;95456.00;;;1.05;100.00
12775;BME280;6451;42.630;23.382;2023-02-12T09:40:34;95162.91;;;-0.67;100.00
12775;BME280;6451;42.630;23.382;2023-02-12T09:43:07;95475.91;;;1.25;100.00
12775;BME280;6451;42.630;23.382;2023-02-12T09:45:42;95452.00;;;1.03;100.00
12775;BME280;6451;42.630;23.382;2023-02-12T09:48:21;95448.88;;;1.21;100.00
12775;BME280;6451;42.630;23.382;2023-02-12T09:50:58;95452.69;;;1.35;100.00
12775;BME280;6451;42.630;23.382;2023-02-12T09:53:29;95438.78;;;1.33;100.00
12775;BME280;6451;42.630;23.382;2023-02-12T09:55:57;95432.78;;;1.11;100.00
12775;BME280;6451;42.630;23.382;2023-02-12T09:58:31;95484.56;;;1.42;100.00
12775;BME280;6451;42.630;23.382;2023-02-12T10:01:00;95474.97;;;1.46;100.00
12775;BME280;6451;42.630;23.382;2023-02-12T10:03:29;95430.16;;;1.21;100.00
12775;BME280;6451;42.630;23.382;2023-02-12T10:06:00;95478.69;;;1.50;100.00
12775;BME280;6451;42.630;23.382;2023-02-12T10:11:48;95468.03;;;1.55;100.00
12775;BME280;6451;42.630;23.382;2023-02-12T10:17:30;95472.16;;;1.88;100.00
12775;BME280;6451;42.630;23.382;2023-02-12T10:22:56;95458.53;;;2.05;100.00
12775;BME280;6451;42.630;23.382;2023-02-12T10:25:28;95489.09;;;2.09;100.00
12775;BME280;6451;42.630;23.382;2023-02-12T10:28:00;95482.91;;;2.14;100.00
12775;BME280;6451;42.630;23.382;2023-02-12T10:30:34;95452.06;;;1.81;100.00
12775;BME280;6451;42.630;23.382;2023-02-12T10:33:06;95488.47;;;1.87;100.00
12775;BME280;6451;42.630;23.382;2023-02-12T10:35:40;95453.66;;;1.72;100.00
12775;BME280;6451;42.630;23.382;2023-02-12T10:38:15;95433.72;;;1.32;100.00
12775;BME280;6451;42.630;23.382;2023-02-12T10:40:43;95490.31;;;1.71;100.00
12775;BME280;6451;42.630;23.382;2023-02-12T10:43:12;95482.53;;;1.75;100.00
12775;BME280;6451;42.630;23.382;2023-02-12T10:45:41;95488.50;;;1.92;100.00
12775;BME280;6451;42.630;23.382;2023-02-12T10:48:11;95487.72;;;2.07;100.00
12775;BME280;6451;42.630;23.382;2023-02-12T10:50:45;95480.22;;;2.04;100.00
12775;BME280;6451;42.630;23.382;2023-02-12T10:53:17;95474.63;;;2.10;100.00
12775;BME280;6451;42.630;23.382;2023-02-12T10:55:46;95496.88;;;2.16;100.00
12775;BME280;6451;42.630;23.382;2023-02-12T10:58:20;95499.81;;;2.30;100.00
12775;BME280;6451;42.630;23.382;2023-02-12T11:00:56;95474.63;;;2.10;100.00
12775;BME280;6451;42.630;23.382;2023-02-12T11:03:28;95451.84;;;2.03;100.00
12775;BME280;6451;42.630;23.382;2023-02-12T11:05:55;95482.13;;;2.18;100.00
12775;BME280;6451;42.630;23.382;2023-02-12T11:08:29;95480.03;;;2.31;100.00
12775;BME280;6451;42.630;23.382;2023-02-12T11:11:03;95483.22;;;2.22;100.00
12775;BME280;6451;42.630;23.382;2023-02-12T11:13:34;95471.47;;;2.39;100.00
12775;BME280;6451;42.630;23.382;2023-02-12T11:16:02;95477.91;;;2.63;100.00
12775;BME280;6451;42.630;23.382;2023-02-12T11:18:32;95488.88;;;3.02;100.00
12775;BME280;6451;42.630;23.382;2023-02-12T11:21:03;95483.75;;;3.16;100.00
12775;BME280;6451;42.630;23.382;2023-02-12T11:23:32;95495.25;;;3.27;100.00
12775;BME280;6451;42.630;23.382;2023-02-12T11:26:01;95485.91;;;3.09;100.00
12775;BME280;6451;42.630;23.382;2023-02-12T11:28:29;95469.81;;;2.99;100.00
12775;BME280;6451;42.630;23.382;2023-02-12T11:31:00;95414.63;;;2.88;100.00
12775;BME280;6451;42.630;23.382;2023-02-12T11:33:30;95430.16;;;2.91;100.00
12775;BME280;6451;42.630;23.382;2023-02-12T11:36:00;95474.66;;;2.97;100.00
12775;BME280;6451;42.630;23.382;2023-02-12T11:38:31;95485.38;;;3.12;100.00
12775;BME280;6451;42.630;23.382;2023-02-12T11:41:02;95452.38;;;3.06;100.00
12775;BME280;6451;42.630;23.382;2023-02-12T11:43:33;95472.97;;;3.37;100.00
12775;BME280;6451;42.630;23.382;2023-02-12T11:46:06;95457.16;;;3.40;100.00
12775;BME280;6451;42.630;23.382;2023-02-12T11:48:36;95443.00;;;3.04;100.00
12775;BME280;6451;42.630;23.382;2023-02-12T11:51:05;95466.22;;;3.54;100.00
12775;BME280;6451;42.630;23.382;2023-02-12T11:53:36;95473.13;;;3.71;100.00
12775;BME280;6451;42.630;23.382;2023-02-12T11:56:07;95462.13;;;3.67;100.00
12775;BME280;6451;42.630;23.382;2023-02-12T11:58:36;95480.78;;;4.03;100.00
12775;BME280;6451;42.630;23.382;2023-02-12T12:01:10;95490.19;;;4.00;100.00
12775;BME280;6451;42.630;23.382;2023-02-12T12:03:43;95492.03;;;4.05;100.00
12775;BME280;6451;42.630;23.382;2023-02-12T12:06:21;95484.75;;;4.10;100.00
12775;BME280;6451;42.630;23.382;2023-02-12T12:08:52;95440.81;;;3.26;100.00
12775;BME280;6451;42.630;23.382;2023-02-12T12:11:24;95482.50;;;3.78;100.00
12775;BME280;6451;42.630;23.382;2023-02-12T12:13:59;95463.06;;;4.02;100.00
12775;BME280;6451;42.630;23.382;2023-02-12T12:16:32;95481.56;;;4.53;100.00
12775;BME280;6451;42.630;23.382;2023-02-12T12:19:22;95484.03;;;4.00;100.00
12775;BME280;6451;42.630;23.382;2023-02-12T12:22:15;95459.81;;;4.05;100.00
12775;BME280;6451;42.630;23.382;2023-02-12T12:24:48;95498.69;;;4.23;100.00
12775;BME280;6451;42.630;23.382;2023-02-12T12:27:21;95494.47;;;4.01;100.00
12775;BME280;6451;42.630;23.382;2023-02-12T12:30:17;95489.69;;;3.93;100.00
12775;BME280;6451;42.630;23.382;2023-02-12T12:32:48;95275.59;;;2.66;100.00
12775;BME280;6451;42.630;23.382;2023-02-12T12:35:22;95420.00;;;3.68;100.00
12775;BME280;6451;42.630;23.382;2023-02-12T12:37:54;95502.97;;;4.24;100.00
12775;BME280;6451;42.630;23.382;2023-02-12T12:40:43;95496.88;;;4.08;100.00
12775;BME280;6451;42.630;23.382;2023-02-12T12:43:19;95508.56;;;4.27;100.00
12775;BME280;6451;42.630;23.382;2023-02-12T12:49:11;95454.06;;;4.22;100.00
12775;BME280;6451;42.630;23.382;2023-02-12T12:55:00;95508.19;;;4.49;100.00
12775;BME280;6451;42.630;23.382;2023-02-12T12:57:38;95509.88;;;4.35;100.00
12775;BME280;6451;42.630;23.382;2023-02-12T13:00:23;95455.06;;;3.92;100.00
12775;BME280;6451;42.630;23.382;2023-02-12T13:03:21;95516.47;;;4.08;100.00
12775;BME280;6451;42.630;23.382;2023-02-12T13:06:21;95515.28;;;4.30;100.00
12775;BME280;6451;42.630;23.382;2023-02-12T13:09:07;95488.03;;;3.97;100.00
12775;BME280;6451;42.630;23.382;2023-02-12T13:11:46;95513.84;;;3.93;100.00
12775;BME280;6451;42.630;23.382;2023-02-12T13:14:30;95490.56;;;3.73;100.00
12775;BME280;6451;42.630;23.382;2023-02-12T13:17:09;95357.81;;;2.81;100.00
12775;BME280;6451;42.630;23.382;2023-02-12T13:19:47;95520.00;;;3.99;100.00
12775;BME280;6451;42.630;23.382;2023-02-12T13:22:24;95498.66;;;3.58;100.00
12775;BME280;6451;42.630;23.382;2023-02-12T13:24:55;95526.44;;;3.98;100.00
12775;BME280;6451;42.630;23.382;2023-02-12T13:27:29;95525.69;;;3.92;100.00
12775;BME280;6451;42.630;23.382;2023-02-12T13:30:02;95513.41;;;3.71;100.00
12775;BME280;6451;42.630;23.382;2023-02-12T13:32:33;95531.09;;;3.77;100.00
12775;BME280;6451;42.630;23.382;2023-02-12T13:35:05;95470.88;;;3.18;100.00
12775;BME280;6451;42.630;23.382;2023-02-12T13:37:38;95524.22;;;3.45;100.00
12775;BME280;6451;42.630;23.382;2023-02-12T13:40:14;95512.94;;;3.48;100.00